Time;durP1;ratioP1;P1;durP2;ratioP2;P2;SDS_P1;SDS_P2;PMS_P1;PMS_P2;Temp;Humidity;BMP_temperature;BMP_pressure;BME280_temperature;BME280_humidity;BME280_pressure;Samples;Min_cycle;Max_cycle;Signal;HPM_P1;HPM_P2
2022/12/13 00:03:44;;;;;;;12.8;8.3;;;;;;;-1.6;88.8;98120;;;;
2022/12/13 00:14:44;;;;;;;12.8;8.3;;;;;;;-1.7;88.4;98120;;;;
2022/12/13 00:25:44;;;;;;;19.3;11.7;;;;;;;-1.7;89;98130;;;;
2022/12/13 00:35:44;;;;;;;19.3;11.7;;;;;;;-1.8;88.1;98130;;;;
2022/12/13 00:46:44;;;;;;;19.3;11.7;;;;;;;-1.9;87.6;98140;;;;
2022/12/13 00:57:44;;;;;;;14.7;8.2;;;;;;;-1.9;88.1;98150;;;;
2022/12/13 01:07:44;;;;;;;14.7;8.2;;;;;;;-2;87.9;98150;;;;
2022/12/13 01:17:45;;;;;;;14.7;8.2;;;;;;;-2;87.2;98160;;;;
2022/12/13 01:27:44;;;;;;;18.3;8.2;;;;;;;-2.1;86.8;98160;;;;
2022/12/13 01:38:44;;;;;;;18.3;8.2;;;;;;;-2.1;86.9;98160;;;;
2022/12/13 01:48:44;;;;;;;18.3;8.2;;;;;;;-2.2;86.3;98170;;;;
2022/12/13 01:58:44;;;;;;;11.7;6.5;;;;;;;-2.4;86.5;98170;;;;
2022/12/13 02:08:44;;;;;;;11.7;6.5;;;;;;;-2.4;86.7;98190;;;;
2022/12/13 02:19:44;;;;;;;11.7;6.5;;;;;;;-2.5;86.7;98180;;;;
2022/12/13 02:29:44;;;;;;;14.6;8.1;;;;;;;-2.5;86.8;98190;;;;
2022/12/13 02:39:44;;;;;;;14.6;8.1;;;;;;;-2.5;87.5;98180;;;;
2022/12/13 02:50:44;;;;;;;14.6;8.1;;;;;;;-2.7;87.1;98190;;;;
2022/12/13 03:01:44;;;;;;;15.2;7.8;;;;;;;-2.7;86.8;98190;;;;
2022/12/13 03:13:48;;;;;;;15.2;7.8;;;;;;;-2.8;86.8;98200;;;;
2022/12/13 03:23:44;;;;;;;14.5;7.6;;;;;;;-2.8;87.2;98200;;;;
2022/12/13 03:34:44;;;;;;;14.5;7.6;;;;;;;-2.8;87.7;98220;;;;
2022/12/13 03:45:44;;;;;;;14.5;7.6;;;;;;;-2.7;87.8;98230;;;;
2022/12/13 03:55:44;;;;;;;16.4;8.4;;;;;;;-2.7;87.8;98230;;;;
2022/12/13 04:06:44;;;;;;;16.4;8.4;;;;;;;-2.8;87.5;98230;;;;
2022/12/13 04:16:44;;;;;;;16.4;8.4;;;;;;;-2.8;87.3;98240;;;;
2022/12/13 04:26:44;;;;;;;15.8;6.6;;;;;;;-2.7;87.2;98240;;;;
2022/12/13 04:36:44;;;;;;;15.8;6.6;;;;;;;-2.8;86.6;98250;;;;
2022/12/13 04:47:44;;;;;;;15.8;6.6;;;;;;;-2.8;86.5;98250;;;;
2022/12/13 04:58:44;;;;;;;10.1;6.3;;;;;;;-2.8;86.3;98250;;;;
2022/12/13 05:09:44;;;;;;;10.1;6.3;;;;;;;-2.8;86.2;98250;;;;
2022/12/13 05:19:44;;;;;;;10.1;6.3;;;;;;;-2.8;85.7;98250;;;;
2022/12/13 05:30:44;;;;;;;12.5;6.3;;;;;;;-2.8;85.2;98260;;;;
2022/12/13 05:40:44;;;;;;;12.5;6.3;;;;;;;-2.9;85.3;98260;;;;
2022/12/13 05:51:44;;;;;;;12.5;6.3;;;;;;;-2.8;85.5;98270;;;;
2022/12/13 06:02:44;;;;;;;9.5;6.3;;;;;;;-2.9;84.6;98270;;;;
2022/12/13 06:13:44;;;;;;;9.5;6.3;;;;;;;-2.9;84.5;98270;;;;
2022/12/13 06:24:46;;;;;;;8.4;4.8;;;;;;;-2.8;84.8;98290;;;;
2022/12/13 06:35:44;;;;;;;8.4;4.8;;;;;;;-2.9;84.8;98300;;;;
2022/12/13 06:46:44;;;;;;;8.4;4.8;;;;;;;-2.9;84.2;98310;;;;
2022/12/13 06:56:44;;;;;;;13.9;6.9;;;;;;;-2.9;84;98320;;;;
2022/12/13 07:06:44;;;;;;;13.9;6.9;;;;;;;-2.9;84.5;98330;;;;
2022/12/13 07:17:44;;;;;;;13.9;6.9;;;;;;;-2.7;84.8;98340;;;;
2022/12/13 07:27:44;;;;;;;13.4;7;;;;;;;-2.5;84.9;98350;;;;
2022/12/13 07:38:44;;;;;;;13.4;7;;;;;;;-2.4;83.9;98360;;;;
2022/12/13 07:48:44;;;;;;;13.4;7;;;;;;;-2.3;82.7;98350;;;;
2022/12/13 07:59:44;;;;;;;9.4;5.4;;;;;;;-2.2;81.7;98350;;;;
2022/12/13 08:09:44;;;;;;;9.4;5.4;;;;;;;-2;82;98350;;;;
2022/12/13 08:20:44;;;;;;;9.4;5.4;;;;;;;-1.5;82.5;98370;;;;
2022/12/13 08:31:44;;;;;;;10;6.2;;;;;;;-1.5;80;98370;;;;
2022/12/13 08:41:44;;;;;;;10;6.2;;;;;;;-1.2;79.7;98380;;;;
2022/12/13 08:51:44;;;;;;;12.7;6.9;;;;;;;-1;78.7;98380;;;;
2022/12/13 09:01:44;;;;;;;12.7;6.9;;;;;;;-1;79.2;98380;;;;
2022/12/13 09:12:44;;;;;;;12.7;6.9;;;;;;;-0.8;79.6;98380;;;;
2022/12/13 09:23:44;;;;;;;14;7.8;;;;;;;-0.6;78.5;98380;;;;
2022/12/13 09:33:44;;;;;;;14;7.8;;;;;;;-0.8;78;98380;;;;
2022/12/13 09:43:44;;;;;;;14;7.8;;;;;;;-0.7;78;98390;;;;
2022/12/13 09:53:44;;;;;;;11.9;6.6;;;;;;;-0.7;75.9;98390;;;;
2022/12/13 10:04:44;;;;;;;11.9;6.6;;;;;;;-0.9;75.7;98380;;;;
2022/12/13 10:15:45;;;;;;;11.9;6.6;;;;;;;-1.2;75.4;98380;;;;
2022/12/13 10:26:46;;;;;;;11.8;7.1;;;;;;;-1.3;75.9;98370;;;;
2022/12/13 10:37:44;;;;;;;11.8;7.1;;;;;;;-0.8;76;98370;;;;
2022/12/13 10:48:45;;;;;;;11.8;7.1;;;;;;;-1.5;75.2;98360;;;;
2022/12/13 10:58:45;;;;;;;16.7;8.3;;;;;;;-1.8;75.8;98370;;;;
2022/12/13 11:09:44;;;;;;;16.7;8.3;;;;;;;-1.3;77;98360;;;;
2022/12/13 11:19:44;;;;;;;16.7;8.3;;;;;;;-1;76;98360;;;;
2022/12/13 11:30:46;;;;;;;14.1;7.5;;;;;;;0;74.7;98350;;;;
2022/12/13 11:41:44;;;;;;;14.1;7.5;;;;;;;-0.1;75.1;98340;;;;
2022/12/13 11:51:44;;;;;;;13.9;8;;;;;;;-0.5;74.1;98350;;;;
2022/12/13 12:01:45;;;;;;;13.9;8;;;;;;;-0.2;75.1;98360;;;;
2022/12/13 12:11:44;;;;;;;13.9;8;;;;;;;-0.3;75.3;98360;;;;
2022/12/13 12:22:44;;;;;;;15;8.4;;;;;;;-0.2;77.5;98350;;;;
2022/12/13 12:33:44;;;;;;;15;8.4;;;;;;;-0.4;76.4;98350;;;;
2022/12/13 12:43:44;;;;;;;15;8.4;;;;;;;-0.4;76.4;98360;;;;
2022/12/13 12:53:44;;;;;;;17.1;9.8;;;;;;;-0.5;76;98370;;;;
2022/12/13 13:03:44;;;;;;;17.1;9.8;;;;;;;-0.8;75.8;98370;;;;
2022/12/13 13:14:44;;;;;;;17.1;9.8;;;;;;;-0.8;76.3;98370;;;;
2022/12/13 13:24:44;;;;;;;14.6;8.2;;;;;;;-1;76.6;98370;;;;
2022/12/13 13:35:46;;;;;;;14.6;8.2;;;;;;;-1.3;77.5;98380;;;;
2022/12/13 13:45:44;;;;;;;14.6;8.2;;;;;;;-1.4;78;98370;;;;
2022/12/13 13:56:44;;;;;;;18.6;10.7;;;;;;;-1.5;78;98380;;;;
2022/12/13 14:06:44;;;;;;;18.6;10.7;;;;;;;-1.6;79.3;98390;;;;
2022/12/13 14:17:44;;;;;;;18.6;10.7;;;;;;;-1.8;79.1;98390;;;;
2022/12/13 14:27:44;;;;;;;18.9;9.8;;;;;;;-1.9;79.7;98390;;;;
2022/12/13 14:37:44;;;;;;;18.9;9.8;;;;;;;-2.1;79.7;98410;;;;
2022/12/13 14:48:44;;;;;;;18.9;9.8;;;;;;;-2.2;80.3;98410;;;;
2022/12/13 14:58:44;;;;;;;19.8;11;;;;;;;-2.4;80.8;98410;;;;
2022/12/13 15:08:44;;;;;;;19.8;11;;;;;;;-2.4;80.4;98420;;;;
2022/12/13 15:19:44;;;;;;;19.8;11;;;;;;;-2.6;79.6;98420;;;;
2022/12/13 15:30:44;;;;;;;20.1;11.7;;;;;;;-2.7;80.4;98430;;;;
2022/12/13 15:41:44;;;;;;;20.1;11.7;;;;;;;-2.8;80.3;98440;;;;
2022/12/13 15:52:44;;;;;;;24.6;12.3;;;;;;;-2.8;80.2;98430;;;;
2022/12/13 16:02:44;;;;;;;24.6;12.3;;;;;;;-2.9;79.2;98440;;;;
2022/12/13 16:12:44;;;;;;;24.6;12.3;;;;;;;-3;78;98440;;;;
2022/12/13 16:23:44;;;;;;;18.2;11;;;;;;;-3.1;77.5;98440;;;;
2022/12/13 16:34:44;;;;;;;18.2;11;;;;;;;-3.2;78.4;98440;;;;
2022/12/13 16:44:44;;;;;;;18.2;11;;;;;;;-3.2;79.4;98450;;;;
2022/12/13 16:55:44;;;;;;;15.3;8.9;;;;;;;-3.2;80.1;98450;;;;
2022/12/13 17:05:44;;;;;;;15.3;8.9;;;;;;;-3.3;79.9;98450;;;;
2022/12/13 17:16:44;;;;;;;15.3;8.9;;;;;;;-3.4;80.2;98460;;;;
2022/12/13 17:27:44;;;;;;;25.8;14.2;;;;;;;-3.3;80.7;98470;;;;
2022/12/13 17:38:44;;;;;;;25.8;14.2;;;;;;;-3.5;80.8;98480;;;;
2022/12/13 17:49:44;;;;;;;25.8;14.2;;;;;;;-3.6;80.9;98490;;;;
2022/12/13 18:00:44;;;;;;;20.8;12;;;;;;;-3.7;81.2;98500;;;;
2022/12/13 18:11:44;;;;;;;20.8;12;;;;;;;-3.7;80.9;98500;;;;
2022/12/13 18:21:44;;;;;;;27.5;16.4;;;;;;;-3.6;81.1;98510;;;;
2022/12/13 18:31:44;;;;;;;27.5;16.4;;;;;;;-3.7;81;98520;;;;
2022/12/13 18:42:44;;;;;;;27.5;16.4;;;;;;;-3.6;81.4;98520;;;;
2022/12/13 18:53:44;;;;;;;24.7;14.4;;;;;;;-3.6;81.3;98520;;;;
2022/12/13 19:03:44;;;;;;;24.7;14.4;;;;;;;-3.6;81.3;98510;;;;
2022/12/13 19:13:44;;;;;;;24.7;14.4;;;;;;;-3.7;81.3;98510;;;;
2022/12/13 19:23:44;;;;;;;38.5;20;;;;;;;-3.8;81.1;98500;;;;
2022/12/13 19:34:46;;;;;;;38.5;20;;;;;;;-4.1;81;98510;;;;
2022/12/13 19:44:44;;;;;;;38.5;20;;;;;;;-4.3;81;98510;;;;
2022/12/13 19:54:44;;;;;;;29.3;18.9;;;;;;;-4.5;81.3;98510;;;;
2022/12/13 20:05:46;;;;;;;29.3;18.9;;;;;;;-4.9;82.3;98510;;;;
2022/12/13 20:16:44;;;;;;;29.3;18.9;;;;;;;-4.9;82.6;98510;;;;
2022/12/13 20:26:46;;;;;;;36.6;20.8;;;;;;;-5.1;82.6;98510;;;;
2022/12/13 20:36:44;;;;;;;36.6;20.8;;;;;;;-5.4;82.6;98500;;;;
2022/12/13 20:47:44;;;;;;;36.6;20.8;;;;;;;-5.9;82.3;98510;;;;
2022/12/13 20:58:44;;;;;;;38.1;21.8;;;;;;;-6.3;82.4;98500;;;;
2022/12/13 21:08:52;;;;;;;38.1;21.8;;;;;;;-6.5;83;98510;;;;
2022/12/13 21:19:45;;;;;;;50.2;25.2;;;;;;;-6.8;83;98510;;;;
2022/12/13 21:30:44;;;;;;;50.2;25.2;;;;;;;-7.1;83.4;98500;;;;
2022/12/13 21:41:44;;;;;;;50.2;25.2;;;;;;;-7.5;83.3;98510;;;;
2022/12/13 21:51:44;;;;;;;53.4;29.9;;;;;;;-7.7;83.5;98510;;;;
2022/12/13 22:02:44;;;;;;;53.4;29.9;;;;;;;-7.9;83.8;98520;;;;
2022/12/13 22:13:44;;;;;;;53.4;29.9;;;;;;;-8.1;83.1;98520;;;;
2022/12/13 22:23:44;;;;;;;41.2;23.7;;;;;;;-8.4;82.9;98510;;;;
2022/12/13 22:34:44;;;;;;;41.2;23.7;;;;;;;-8.5;83.3;98510;;;;
2022/12/13 22:44:44;;;;;;;41.2;23.7;;;;;;;-8.7;83.5;98510;;;;
2022/12/13 22:54:44;;;;;;;32.7;21.4;;;;;;;-8.8;84;98510;;;;
2022/12/13 23:05:45;;;;;;;32.7;21.4;;;;;;;-9;83.9;98490;;;;
2022/12/13 23:15:44;;;;;;;32.7;21.4;;;;;;;-9.2;83.7;98480;;;;
2022/12/13 23:25:44;;;;;;;47.5;28.1;;;;;;;-9.4;83.3;98480;;;;
2022/12/13 23:36:44;;;;;;;47.5;28.1;;;;;;;-9.6;83.2;98470;;;;
2022/12/13 23:47:44;;;;;;;47.5;28.1;;;;;;;-9.8;83;98470;;;;
2022/12/13 23:57:44;;;;;;;43.7;29.2;;;;;;;-9.9;83.1;98470;;;;
